sensor_id;sensor_type;location;lat;lon;timestamp;pressure;altitude;pressure_sealevel;temperature;humidity
54562;BME280;69047;53.358;-1.486;2023-08-21T00:00:48;101153.75;;;15.70;70.70
54562;BME280;69047;53.358;-1.486;2023-08-21T00:03:13;101157.03;;;15.67;70.90
54562;BME280;69047;53.358;-1.486;2023-08-21T00:05:38;101156.50;;;15.80;69.92
54562;BME280;69047;53.358;-1.486;2023-08-21T00:08:04;101154.53;;;15.40;71.59
54562;BME280;69047;53.358;-1.486;2023-08-21T00:10:30;101149.13;;;15.60;70.88
54562;BME280;69047;53.358;-1.486;2023-08-21T00:12:56;101142.56;;;15.91;69.73
54562;BME280;69047;53.358;-1.486;2023-08-21T00:15:21;101142.28;;;15.53;70.94
54562;BME280;69047;53.358;-1.486;2023-08-21T00:17:47;101139.72;;;15.11;73.03
54562;BME280;69047;53.358;-1.486;2023-08-21T00:20:12;101142.53;;;15.51;71.42
54562;BME280;69047;53.358;-1.486;2023-08-21T00:22:38;101140.94;;;15.70;70.40
54562;BME280;69047;53.358;-1.486;2023-08-21T00:25:04;101134.91;;;15.53;71.05
54562;BME280;69047;53.358;-1.486;2023-08-21T00:27:29;101130.53;;;15.57;71.50
54562;BME280;69047;53.358;-1.486;2023-08-21T00:29:55;101118.25;;;15.75;70.81
54562;BME280;69047;53.358;-1.486;2023-08-21T00:32:20;101121.81;;;15.85;70.66
54562;BME280;69047;53.358;-1.486;2023-08-21T00:34:45;101128.91;;;15.86;70.36
54562;BME280;69047;53.358;-1.486;2023-08-21T00:37:11;101127.22;;;15.35;71.76
54562;BME280;69047;53.358;-1.486;2023-08-21T00:39:36;101129.97;;;15.45;72.21
54562;BME280;69047;53.358;-1.486;2023-08-21T00:42:02;101133.28;;;15.57;71.66
54562;BME280;69047;53.358;-1.486;2023-08-21T00:44:27;101133.00;;;15.64;71.26
54562;BME280;69047;53.358;-1.486;2023-08-21T00:46:52;101133.00;;;15.84;70.25
54562;BME280;69047;53.358;-1.486;2023-08-21T00:49:18;101127.28;;;15.75;70.58
54562;BME280;69047;53.358;-1.486;2023-08-21T00:51:44;101140.38;;;15.78;70.95
54562;BME280;69047;53.358;-1.486;2023-08-21T00:54:10;101135.19;;;15.82;70.49
54562;BME280;69047;53.358;-1.486;2023-08-21T00:56:35;101139.28;;;15.94;70.30
54562;BME280;69047;53.358;-1.486;2023-08-21T00:59:01;101144.19;;;15.92;69.78
54562;BME280;69047;53.358;-1.486;2023-08-21T01:01:28;101137.09;;;15.71;70.65
54562;BME280;69047;53.358;-1.486;2023-08-21T01:03:54;101139.56;;;15.53;71.61
54562;BME280;69047;53.358;-1.486;2023-08-21T01:06:19;101132.09;;;15.13;72.64
54562;BME280;69047;53.358;-1.486;2023-08-21T01:09:08;101133.59;;;14.78;74.29
54562;BME280;69047;53.358;-1.486;2023-08-21T01:11:55;101140.03;;;15.29;72.73
54562;BME280;69047;53.358;-1.486;2023-08-21T01:14:31;101139.75;;;15.21;72.54
54562;BME280;69047;53.358;-1.486;2023-08-21T01:17:02;101146.00;;;15.11;73.29
54562;BME280;69047;53.358;-1.486;2023-08-21T01:19:36;101143.88;;;15.28;73.46
54562;BME280;69047;53.358;-1.486;2023-08-21T01:22:02;101143.31;;;15.41;72.74
54562;BME280;69047;53.358;-1.486;2023-08-21T01:24:28;101155.13;;;15.72;71.58
54562;BME280;69047;53.358;-1.486;2023-08-21T01:26:53;101147.47;;;16.04;70.28
54562;BME280;69047;53.358;-1.486;2023-08-21T01:29:19;101149.63;;;16.08;69.63
54562;BME280;69047;53.358;-1.486;2023-08-21T01:31:50;101146.38;;;16.16;69.93
54562;BME280;69047;53.358;-1.486;2023-08-21T01:34:16;101146.38;;;15.90;70.92
54562;BME280;69047;53.358;-1.486;2023-08-21T01:36:42;101149.63;;;16.08;71.00
54562;BME280;69047;53.358;-1.486;2023-08-21T01:39:08;101150.16;;;16.25;70.06
54562;BME280;69047;53.358;-1.486;2023-08-21T01:41:34;101149.06;;;16.26;69.24
54562;BME280;69047;53.358;-1.486;2023-08-21T01:43:59;101149.59;;;16.33;69.17
54562;BME280;69047;53.358;-1.486;2023-08-21T01:46:25;101151.25;;;16.39;69.11
54562;BME280;69047;53.358;-1.486;2023-08-21T01:48:50;101151.84;;;15.85;71.01
54562;BME280;69047;53.358;-1.486;2023-08-21T01:51:15;101143.09;;;15.98;70.84
54562;BME280;69047;53.358;-1.486;2023-08-21T01:53:41;101141.91;;;16.40;69.60
54562;BME280;69047;53.358;-1.486;2023-08-21T01:56:06;101138.66;;;16.38;69.17
54562;BME280;69047;53.358;-1.486;2023-08-21T01:58:31;101141.38;;;16.43;69.53
54562;BME280;69047;53.358;-1.486;2023-08-21T02:00:57;101148.81;;;16.02;70.97
54562;BME280;69047;53.358;-1.486;2023-08-21T02:03:25;101143.88;;;16.24;69.68
54562;BME280;69047;53.358;-1.486;2023-08-21T02:05:50;101134.31;;;16.27;69.42
54562;BME280;69047;53.358;-1.486;2023-08-21T02:08:17;101145.53;;;15.95;71.29
54562;BME280;69047;53.358;-1.486;2023-08-21T02:10:50;101144.47;;;15.66;71.79
54562;BME280;69047;53.358;-1.486;2023-08-21T02:13:16;101141.47;;;15.92;71.45
54562;BME280;69047;53.358;-1.486;2023-08-21T02:15:41;101135.97;;;16.18;70.57
54562;BME280;69047;53.358;-1.486;2023-08-21T02:18:07;101128.06;;;16.06;70.61
54562;BME280;69047;53.358;-1.486;2023-08-21T02:20:32;101142.84;;;16.00;70.46
54562;BME280;69047;53.358;-1.486;2023-08-21T02:22:58;101139.28;;;16.10;70.39
54562;BME280;69047;53.358;-1.486;2023-08-21T02:25:24;101148.53;;;16.24;69.46
54562;BME280;69047;53.358;-1.486;2023-08-21T02:27:49;101141.94;;;16.25;69.12
54562;BME280;69047;53.358;-1.486;2023-08-21T02:30:15;101145.59;;;15.65;70.97
54562;BME280;69047;53.358;-1.486;2023-08-21T02:32:40;101137.91;;;15.72;70.84
54562;BME280;69047;53.358;-1.486;2023-08-21T02:35:07;101139.84;;;15.91;70.12
54562;BME280;69047;53.358;-1.486;2023-08-21T02:37:34;101139.56;;;15.78;70.01
54562;BME280;69047;53.358;-1.486;2023-08-21T02:39:59;101139.31;;;15.79;69.59
54562;BME280;69047;53.358;-1.486;2023-08-21T02:42:25;101142.56;;;15.86;69.27
54562;BME280;69047;53.358;-1.486;2023-08-21T02:44:51;101137.94;;;15.62;69.77
54562;BME280;69047;53.358;-1.486;2023-08-21T02:47:16;101146.09;;;15.57;70.24
54562;BME280;69047;53.358;-1.486;2023-08-21T02:49:42;101142.00;;;15.59;70.31
54562;BME280;69047;53.358;-1.486;2023-08-21T02:52:07;101146.84;;;15.27;71.30
54562;BME280;69047;53.358;-1.486;2023-08-21T02:54:33;101149.56;;;15.17;71.93
54562;BME280;69047;53.358;-1.486;2023-08-21T02:56:58;101143.56;;;15.30;71.57
54562;BME280;69047;53.358;-1.486;2023-08-21T02:59:23;101149.31;;;15.33;70.96
54562;BME280;69047;53.358;-1.486;2023-08-21T03:01:49;101150.97;;;15.34;70.24
54562;BME280;69047;53.358;-1.486;2023-08-21T03:04:14;101158.34;;;15.44;70.10
54562;BME280;69047;53.358;-1.486;2023-08-21T03:06:40;101154.53;;;15.40;70.24
54562;BME280;69047;53.358;-1.486;2023-08-21T03:09:05;101152.88;;;15.39;69.99
54562;BME280;69047;53.358;-1.486;2023-08-21T03:11:30;101153.16;;;15.42;69.69
54562;BME280;69047;53.358;-1.486;2023-08-21T03:13:56;101153.97;;;15.38;69.99
54562;BME280;69047;53.358;-1.486;2023-08-21T03:16:21;101144.41;;;15.30;69.59
54562;BME280;69047;53.358;-1.486;2023-08-21T03:18:55;101146.63;;;15.43;69.75
54562;BME280;69047;53.358;-1.486;2023-08-21T03:21:21;101146.31;;;15.30;70.12
54562;BME280;69047;53.358;-1.486;2023-08-21T03:23:50;101147.75;;;15.58;68.55
54562;BME280;69047;53.358;-1.486;2023-08-21T03:26:15;101137.63;;;15.48;68.48
54562;BME280;69047;53.358;-1.486;2023-08-21T03:28:41;101142.56;;;15.61;68.30
54562;BME280;69047;53.358;-1.486;2023-08-21T03:31:06;101133.53;;;15.50;69.02
54562;BME280;69047;53.358;-1.486;2023-08-21T03:33:31;101133.28;;;15.47;68.93
54562;BME280;69047;53.358;-1.486;2023-08-21T03:35:57;101132.72;;;15.65;68.22
54562;BME280;69047;53.358;-1.486;2023-08-21T03:38:22;101131.31;;;15.37;69.43
54562;BME280;69047;53.358;-1.486;2023-08-21T03:40:47;101129.97;;;15.45;69.02
54562;BME280;69047;53.358;-1.486;2023-08-21T03:43:13;101131.34;;;15.63;68.53
54562;BME280;69047;53.358;-1.486;2023-08-21T03:45:38;101124.53;;;15.65;69.03
54562;BME280;69047;53.358;-1.486;2023-08-21T03:48:04;101124.22;;;15.41;69.88
54562;BME280;69047;53.358;-1.486;2023-08-21T03:50:29;101125.63;;;15.54;69.29
54562;BME280;69047;53.358;-1.486;2023-08-21T03:52:54;101129.19;;;15.55;69.72
54562;BME280;69047;53.358;-1.486;2023-08-21T03:55:20;101128.63;;;15.47;70.05
54562;BME280;69047;53.358;-1.486;2023-08-21T03:57:45;101129.91;;;15.15;70.78
54562;BME280;69047;53.358;-1.486;2023-08-21T04:00:11;101132.38;;;15.11;71.09
54562;BME280;69047;53.358;-1.486;2023-08-21T04:02:37;101130.84;;;14.68;73.12
54562;BME280;69047;53.358;-1.486;2023-08-21T04:05:02;101137.75;;;14.86;72.63
54562;BME280;69047;53.358;-1.486;2023-08-21T04:07:28;101140.94;;;14.73;72.69
54562;BME280;69047;53.358;-1.486;2023-08-21T04:09:53;101137.19;;;14.84;72.26
54562;BME280;69047;53.358;-1.486;2023-08-21T04:12:18;101136.38;;;14.93;71.92
54562;BME280;69047;53.358;-1.486;2023-08-21T04:14:44;101138.84;;;14.90;72.19
54562;BME280;69047;53.358;-1.486;2023-08-21T04:17:09;101139.28;;;14.67;72.83
54562;BME280;69047;53.358;-1.486;2023-08-21T04:19:34;101136.81;;;14.60;73.35
54562;BME280;69047;53.358;-1.486;2023-08-21T04:22:00;101138.44;;;14.61;72.90
54562;BME280;69047;53.358;-1.486;2023-08-21T04:24:25;101134.03;;;14.45;73.84
54562;BME280;69047;53.358;-1.486;2023-08-21T04:26:50;101140.97;;;14.26;73.84
54562;BME280;69047;53.358;-1.486;2023-08-21T04:29:16;101133.97;;;14.40;74.52
54562;BME280;69047;53.358;-1.486;2023-08-21T04:31:41;101142.28;;;14.65;72.82
54562;BME280;69047;53.358;-1.486;2023-08-21T04:34:06;101145.47;;;14.47;73.49
54562;BME280;69047;53.358;-1.486;2023-08-21T04:36:32;101136.06;;;14.28;73.96
54562;BME280;69047;53.358;-1.486;2023-08-21T04:38:57;101147.75;;;14.18;74.52
54562;BME280;69047;53.358;-1.486;2023-08-21T04:41:22;101148.69;;;14.02;74.95
54562;BME280;69047;53.358;-1.486;2023-08-21T04:43:48;101150.97;;;14.15;74.73
54562;BME280;69047;53.358;-1.486;2023-08-21T04:46:13;101146.81;;;14.03;75.06
54562;BME280;69047;53.358;-1.486;2023-08-21T04:48:38;101142.72;;;14.42;74.38
54562;BME280;69047;53.358;-1.486;2023-08-21T04:51:04;101152.06;;;14.56;73.31
54562;BME280;69047;53.358;-1.486;2023-08-21T04:53:29;101142.44;;;14.38;74.06
54562;BME280;69047;53.358;-1.486;2023-08-21T04:55:55;101155.41;;;14.26;74.31
54562;BME280;69047;53.358;-1.486;2023-08-21T04:58:20;101149.09;;;14.21;74.63
54562;BME280;69047;53.358;-1.486;2023-08-21T05:00:46;101154.69;;;14.36;74.01
54562;BME280;69047;53.358;-1.486;2023-08-21T05:03:11;101152.66;;;14.21;74.54
54562;BME280;69047;53.358;-1.486;2023-08-21T05:05:37;101155.69;;;14.30;74.13
54562;BME280;69047;53.358;-1.486;2023-08-21T05:08:03;101155.31;;;14.53;73.92
54562;BME280;69047;53.358;-1.486;2023-08-21T05:10:28;101157.19;;;14.48;73.89
54562;BME280;69047;53.358;-1.486;2023-08-21T05:12:56;101154.81;;;14.61;73.36
54562;BME280;69047;53.358;-1.486;2023-08-21T05:15:22;101147.75;;;14.65;73.30
54562;BME280;69047;53.358;-1.486;2023-08-21T05:17:47;101153.34;;;14.44;73.91
54562;BME280;69047;53.358;-1.486;2023-08-21T05:20:13;101146.03;;;14.49;73.82
54562;BME280;69047;53.358;-1.486;2023-08-21T05:22:40;101146.28;;;14.48;73.58
54562;BME280;69047;53.358;-1.486;2023-08-21T05:25:06;101153.44;;;14.64;73.30
54562;BME280;69047;53.358;-1.486;2023-08-21T05:27:31;101156.66;;;14.51;73.32
54562;BME280;69047;53.358;-1.486;2023-08-21T05:29:57;101143.56;;;14.48;73.41
54562;BME280;69047;53.358;-1.486;2023-08-21T05:32:22;101164.63;;;14.57;73.72
54562;BME280;69047;53.358;-1.486;2023-08-21T05:34:47;101145.78;;;14.56;73.87
54562;BME280;69047;53.358;-1.486;2023-08-21T05:37:13;101152.53;;;14.43;73.91
54562;BME280;69047;53.358;-1.486;2023-08-21T05:39:38;101156.44;;;14.62;73.55
54562;BME280;69047;53.358;-1.486;2023-08-21T05:42:04;101154.38;;;14.32;74.83
54562;BME280;69047;53.358;-1.486;2023-08-21T05:44:29;101154.72;;;14.46;74.30
54562;BME280;69047;53.358;-1.486;2023-08-21T05:46:54;101163.06;;;14.76;73.20
54562;BME280;69047;53.358;-1.486;2023-08-21T05:49:20;101159.25;;;14.77;73.18
54562;BME280;69047;53.358;-1.486;2023-08-21T05:51:45;101158.66;;;14.65;73.27
54562;BME280;69047;53.358;-1.486;2023-08-21T05:54:11;101160.63;;;14.80;73.02
54562;BME280;69047;53.358;-1.486;2023-08-21T05:56:36;101166.31;;;14.73;73.31
54562;BME280;69047;53.358;-1.486;2023-08-21T05:59:01;101165.06;;;15.01;72.50
54562;BME280;69047;53.358;-1.486;2023-08-21T06:01:27;101164.75;;;14.92;73.12
54562;BME280;69047;53.358;-1.486;2023-08-21T06:03:52;101164.28;;;15.11;72.30
54562;BME280;69047;53.358;-1.486;2023-08-21T06:06:17;101176.03;;;15.16;72.09
54562;BME280;69047;53.358;-1.486;2023-08-21T06:08:43;101170.56;;;15.26;71.77
54562;BME280;69047;53.358;-1.486;2023-08-21T06:11:09;101170.56;;;15.16;72.43
54562;BME280;69047;53.358;-1.486;2023-08-21T06:13:34;101173.31;;;15.26;71.91
54562;BME280;69047;53.358;-1.486;2023-08-21T06:15:59;101174.16;;;15.37;71.50
54562;BME280;69047;53.358;-1.486;2023-08-21T06:18:25;101183.72;;;15.39;71.31
54562;BME280;69047;53.358;-1.486;2023-08-21T06:20:50;101179.34;;;15.28;71.92
54562;BME280;69047;53.358;-1.486;2023-08-21T06:23:19;101178.25;;;15.44;71.54
54562;BME280;69047;53.358;-1.486;2023-08-21T06:25:45;101179.31;;;15.23;72.24
54562;BME280;69047;53.358;-1.486;2023-08-21T06:28:12;101176.06;;;15.36;72.43
54562;BME280;69047;53.358;-1.486;2023-08-21T06:30:37;101172.84;;;15.55;71.59
54562;BME280;69047;53.358;-1.486;2023-08-21T06:33:03;101181.00;;;15.44;72.16
54562;BME280;69047;53.358;-1.486;2023-08-21T06:35:28;101181.03;;;15.60;71.37
54562;BME280;69047;53.358;-1.486;2023-08-21T06:37:53;101172.88;;;15.65;70.75
54562;BME280;69047;53.358;-1.486;2023-08-21T06:40:19;101176.16;;;15.67;70.78
54562;BME280;69047;53.358;-1.486;2023-08-21T06:42:45;101180.22;;;15.74;71.27
54562;BME280;69047;53.358;-1.486;2023-08-21T06:45:10;101174.25;;;15.82;71.06
54562;BME280;69047;53.358;-1.486;2023-08-21T06:47:35;101176.13;;;15.52;71.90
54562;BME280;69047;53.358;-1.486;2023-08-21T06:50:01;101179.09;;;15.45;72.56
54562;BME280;69047;53.358;-1.486;2023-08-21T06:52:26;101174.22;;;15.47;72.41
54562;BME280;69047;53.358;-1.486;2023-08-21T06:54:52;101181.09;;;15.80;71.76
54562;BME280;69047;53.358;-1.486;2023-08-21T06:57:17;101178.06;;;15.91;71.39
54562;BME280;69047;53.358;-1.486;2023-08-21T06:59:42;101177.50;;;16.15;70.01
54562;BME280;69047;53.358;-1.486;2023-08-21T07:02:08;101178.84;;;16.32;69.31
54562;BME280;69047;53.358;-1.486;2023-08-21T07:04:34;101183.50;;;16.27;69.57
54562;BME280;69047;53.358;-1.486;2023-08-21T07:06:59;101187.63;;;16.24;70.15
54562;BME280;69047;53.358;-1.486;2023-08-21T07:09:24;101185.66;;;16.35;69.53
54562;BME280;69047;53.358;-1.486;2023-08-21T07:11:50;101185.09;;;16.43;69.39
54562;BME280;69047;53.358;-1.486;2023-08-21T07:14:15;101183.44;;;16.52;69.29
54562;BME280;69047;53.358;-1.486;2023-08-21T07:16:42;101192.50;;;16.47;69.67
54562;BME280;69047;53.358;-1.486;2023-08-21T07:19:08;101182.38;;;16.38;69.91
54562;BME280;69047;53.358;-1.486;2023-08-21T07:21:33;101192.22;;;16.44;70.06
54562;BME280;69047;53.358;-1.486;2023-08-21T07:24:02;101186.78;;;16.39;70.26
54562;BME280;69047;53.358;-1.486;2023-08-21T07:26:28;101184.03;;;16.29;70.51
54562;BME280;69047;53.358;-1.486;2023-08-21T07:28:54;101184.53;;;16.61;69.47
54562;BME280;69047;53.358;-1.486;2023-08-21T07:31:20;101175.53;;;16.55;69.10
54562;BME280;69047;53.358;-1.486;2023-08-21T07:33:45;101169.75;;;16.67;69.05
54562;BME280;69047;53.358;-1.486;2023-08-21T07:36:11;101176.28;;;16.81;69.02
54562;BME280;69047;53.358;-1.486;2023-08-21T07:38:42;101177.09;;;16.87;69.10
54562;BME280;69047;53.358;-1.486;2023-08-21T07:41:09;101170.81;;;16.81;69.42
54562;BME280;69047;53.358;-1.486;2023-08-21T07:43:41;101180.25;;;17.09;67.90
54562;BME280;69047;53.358;-1.486;2023-08-21T07:46:09;101170.56;;;17.27;67.40
54562;BME280;69047;53.358;-1.486;2023-08-21T07:48:44;101172.03;;;17.14;67.77
54562;BME280;69047;53.358;-1.486;2023-08-21T07:51:10;101166.75;;;17.28;67.03
54562;BME280;69047;53.358;-1.486;2023-08-21T07:53:36;101167.22;;;17.40;66.83
54562;BME280;69047;53.358;-1.486;2023-08-21T07:56:03;101163.38;;;17.41;66.70
54562;BME280;69047;53.358;-1.486;2023-08-21T07:58:31;101163.59;;;17.49;66.56
54562;BME280;69047;53.358;-1.486;2023-08-21T08:00:57;101161.63;;;17.60;66.52
54562;BME280;69047;53.358;-1.486;2023-08-21T08:03:22;101162.97;;;17.67;65.70
54562;BME280;69047;53.358;-1.486;2023-08-21T08:05:48;101164.81;;;17.72;65.23
54562;BME280;69047;53.358;-1.486;2023-08-21T08:08:13;101165.13;;;17.71;65.30
54562;BME280;69047;53.358;-1.486;2023-08-21T08:10:40;101162.59;;;17.74;65.26
54562;BME280;69047;53.358;-1.486;2023-08-21T08:13:06;101165.03;;;17.81;65.23
54562;BME280;69047;53.358;-1.486;2023-08-21T08:15:32;101168.59;;;17.81;65.45
54562;BME280;69047;53.358;-1.486;2023-08-21T08:17:59;101157.56;;;17.86;64.71
54562;BME280;69047;53.358;-1.486;2023-08-21T08:20:24;101164.47;;;17.84;65.57
54562;BME280;69047;53.358;-1.486;2023-08-21T08:22:50;101164.72;;;17.87;65.90
54562;BME280;69047;53.358;-1.486;2023-08-21T08:25:15;101159.59;;;18.09;65.40
54562;BME280;69047;53.358;-1.486;2023-08-21T08:27:40;101162.59;;;18.08;65.58
54562;BME280;69047;53.358;-1.486;2023-08-21T08:30:06;101158.31;;;18.25;64.23
54562;BME280;69047;53.358;-1.486;2023-08-21T08:32:32;101163.22;;;18.29;64.18
54562;BME280;69047;53.358;-1.486;2023-08-21T08:34:57;101156.22;;;18.17;64.77
54562;BME280;69047;53.358;-1.486;2023-08-21T08:37:23;101148.25;;;18.16;64.72
54562;BME280;69047;53.358;-1.486;2023-08-21T08:39:48;101156.06;;;18.33;64.35
54562;BME280;69047;53.358;-1.486;2023-08-21T08:42:14;101162.47;;;18.47;63.93
54562;BME280;69047;53.358;-1.486;2023-08-21T08:44:41;101153.13;;;18.53;63.35
54562;BME280;69047;53.358;-1.486;2023-08-21T08:47:11;101166.31;;;18.46;63.84
54562;BME280;69047;53.358;-1.486;2023-08-21T08:49:39;101158.66;;;18.71;63.02
54562;BME280;69047;53.358;-1.486;2023-08-21T08:52:05;101163.38;;;18.90;62.91
54562;BME280;69047;53.358;-1.486;2023-08-21T08:54:31;101159.91;;;19.03;62.10
54562;BME280;69047;53.358;-1.486;2023-08-21T08:56:57;101150.88;;;19.02;62.08
54562;BME280;69047;53.358;-1.486;2023-08-21T08:59:23;101159.78;;;19.13;62.15
54562;BME280;69047;53.358;-1.486;2023-08-21T09:01:48;101162.16;;;19.19;61.83
54562;BME280;69047;53.358;-1.486;2023-08-21T09:04:14;101156.16;;;19.17;61.63
54562;BME280;69047;53.358;-1.486;2023-08-21T09:06:40;101145.91;;;19.04;61.77
54562;BME280;69047;53.358;-1.486;2023-08-21T09:09:07;101157.25;;;19.16;61.74
54562;BME280;69047;53.358;-1.486;2023-08-21T09:11:33;101164.53;;;19.07;61.07
54562;BME280;69047;53.358;-1.486;2023-08-21T09:13:59;101160.69;;;19.08;61.16
54562;BME280;69047;53.358;-1.486;2023-08-21T09:16:25;101164.16;;;19.32;60.81
54562;BME280;69047;53.358;-1.486;2023-08-21T09:18:55;101171.53;;;19.37;60.20
54562;BME280;69047;53.358;-1.486;2023-08-21T09:21:25;101172.31;;;19.19;60.72
54562;BME280;69047;53.358;-1.486;2023-08-21T09:23:59;101165.53;;;19.35;61.28
54562;BME280;69047;53.358;-1.486;2023-08-21T09:26:26;101159.88;;;19.45;60.08
54562;BME280;69047;53.358;-1.486;2023-08-21T09:28:52;101170.00;;;19.50;59.99
54562;BME280;69047;53.358;-1.486;2023-08-21T09:31:22;101184.63;;;19.21;60.45
54562;BME280;69047;53.358;-1.486;2023-08-21T09:34:01;101178.44;;;19.34;61.06
54562;BME280;69047;53.358;-1.486;2023-08-21T09:36:30;101196.44;;;19.22;60.00
54562;BME280;69047;53.358;-1.486;2023-08-21T09:38:55;101179.75;;;19.18;60.73
54562;BME280;69047;53.358;-1.486;2023-08-21T09:41:26;101169.56;;;19.19;60.37
54562;BME280;69047;53.358;-1.486;2023-08-21T09:43:52;101180.38;;;19.53;59.93
54562;BME280;69047;53.358;-1.486;2023-08-21T09:46:23;101173.47;;;19.55;59.12
54562;BME280;69047;53.358;-1.486;2023-08-21T09:48:51;101164.56;;;19.26;60.42
54562;BME280;69047;53.358;-1.486;2023-08-21T09:51:17;101167.81;;;19.28;60.05
54562;BME280;69047;53.358;-1.486;2023-08-21T09:53:42;101169.91;;;19.55;59.78
54562;BME280;69047;53.358;-1.486;2023-08-21T09:56:08;101164.28;;;19.65;59.46
54562;BME280;69047;53.358;-1.486;2023-08-21T09:58:35;101158.38;;;19.71;59.66
54562;BME280;69047;53.358;-1.486;2023-08-21T10:01:04;101165.25;;;19.87;58.68
54562;BME280;69047;53.358;-1.486;2023-08-21T10:03:34;101155.56;;;19.76;58.66
54562;BME280;69047;53.358;-1.486;2023-08-21T10:06:01;101143.75;;;19.76;58.23
54562;BME280;69047;53.358;-1.486;2023-08-21T10:08:27;101149.63;;;20.02;58.01
54562;BME280;69047;53.358;-1.486;2023-08-21T10:10:53;101142.78;;;19.99;58.24
54562;BME280;69047;53.358;-1.486;2023-08-21T10:13:19;101143.78;;;19.89;58.62
54562;BME280;69047;53.358;-1.486;2023-08-21T10:15:45;101144.25;;;20.10;58.52
54562;BME280;69047;53.358;-1.486;2023-08-21T10:18:37;101151.53;;;20.01;59.63
54562;BME280;69047;53.358;-1.486;2023-08-21T10:21:17;101131.47;;;20.47;57.72
54562;BME280;69047;53.358;-1.486;2023-08-21T10:23:47;101145.94;;;20.52;57.00
54562;BME280;69047;53.358;-1.486;2023-08-21T10:26:13;101149.84;;;20.65;56.03
54562;BME280;69047;53.358;-1.486;2023-08-21T10:28:52;101139.66;;;20.52;56.43
54562;BME280;69047;53.358;-1.486;2023-08-21T10:33:59;101120.47;;;20.74;56.08
54562;BME280;69047;53.358;-1.486;2023-08-21T10:39:15;101130.75;;;20.82;55.90
54562;BME280;69047;53.358;-1.486;2023-08-21T10:47:17;101111.16;;;20.97;56.00
54562;BME280;69047;53.358;-1.486;2023-08-21T10:49:47;101113.19;;;21.05;56.16
54562;BME280;69047;53.358;-1.486;2023-08-21T10:52:17;101108.56;;;21.28;56.06
54562;BME280;69047;53.358;-1.486;2023-08-21T10:54:47;101111.78;;;21.43;54.10
54562;BME280;69047;53.358;-1.486;2023-08-21T10:57:13;101112.75;;;21.47;53.36
54562;BME280;69047;53.358;-1.486;2023-08-21T10:59:38;101119.72;;;21.23;54.33
54562;BME280;69047;53.358;-1.486;2023-08-21T11:02:04;101131.94;;;21.03;54.48
54562;BME280;69047;53.358;-1.486;2023-08-21T11:04:39;101125.50;;;21.21;54.46
54562;BME280;69047;53.358;-1.486;2023-08-21T11:07:05;101103.75;;;21.33;54.19
54562;BME280;69047;53.358;-1.486;2023-08-21T11:09:31;101106.41;;;21.38;53.50
54562;BME280;69047;53.358;-1.486;2023-08-21T11:11:56;101114.09;;;21.50;53.00
54562;BME280;69047;53.358;-1.486;2023-08-21T11:14:25;101102.03;;;21.24;53.51
54562;BME280;69047;53.358;-1.486;2023-08-21T11:16:51;101105.41;;;21.21;53.78
54562;BME280;69047;53.358;-1.486;2023-08-21T11:19:16;101106.03;;;21.18;54.59
54562;BME280;69047;53.358;-1.486;2023-08-21T11:21:42;101116.16;;;21.09;54.86
54562;BME280;69047;53.358;-1.486;2023-08-21T11:24:08;101105.25;;;21.17;53.13
54562;BME280;69047;53.358;-1.486;2023-08-21T11:26:33;101106.50;;;21.33;52.96
54562;BME280;69047;53.358;-1.486;2023-08-21T11:28:59;101098.03;;;21.30;52.88
54562;BME280;69047;53.358;-1.486;2023-08-21T11:31:27;101091.53;;;21.48;52.33
54562;BME280;69047;53.358;-1.486;2023-08-21T11:33:53;101086.47;;;21.64;52.85
54562;BME280;69047;53.358;-1.486;2023-08-21T11:36:18;101086.66;;;21.67;53.21
54562;BME280;69047;53.358;-1.486;2023-08-21T11:38:57;101092.94;;;21.59;52.64
54562;BME280;69047;53.358;-1.486;2023-08-21T11:41:23;101078.56;;;21.48;53.36
54562;BME280;69047;53.358;-1.486;2023-08-21T11:43:48;101097.88;;;21.93;52.66
54562;BME280;69047;53.358;-1.486;2023-08-21T11:46:13;101086.66;;;22.20;52.56
54562;BME280;69047;53.358;-1.486;2023-08-21T11:48:40;101091.53;;;22.23;51.05
54562;BME280;69047;53.358;-1.486;2023-08-21T11:51:07;101091.88;;;22.30;51.51
54562;BME280;69047;53.358;-1.486;2023-08-21T11:53:37;101089.38;;;22.59;50.92
54562;BME280;69047;53.358;-1.486;2023-08-21T11:56:09;101084.56;;;22.26;52.50
54562;BME280;69047;53.358;-1.486;2023-08-21T11:58:38;101084.63;;;22.03;53.54
54562;BME280;69047;53.358;-1.486;2023-08-21T12:01:04;101076.16;;;22.00;53.10
54562;BME280;69047;53.358;-1.486;2023-08-21T12:03:30;101075.09;;;22.10;52.48
54562;BME280;69047;53.358;-1.486;2023-08-21T12:06:04;101069.88;;;22.56;51.68
54562;BME280;69047;53.358;-1.486;2023-08-21T12:08:30;101059.72;;;22.65;52.74
54562;BME280;69047;53.358;-1.486;2023-08-21T12:10:55;101065.34;;;22.51;51.28
54562;BME280;69047;53.358;-1.486;2023-08-21T12:13:20;101075.09;;;22.57;51.45
54562;BME280;69047;53.358;-1.486;2023-08-21T12:15:46;101074.81;;;22.68;51.85
54562;BME280;69047;53.358;-1.486;2023-08-21T12:18:11;101075.59;;;22.59;51.50
54562;BME280;69047;53.358;-1.486;2023-08-21T12:20:36;101078.44;;;22.37;51.27
54562;BME280;69047;53.358;-1.486;2023-08-21T12:23:03;101075.75;;;22.63;51.19
54562;BME280;69047;53.358;-1.486;2023-08-21T12:25:28;101081.09;;;22.51;52.34
54562;BME280;69047;53.358;-1.486;2023-08-21T12:27:53;101070.47;;;22.75;51.38
54562;BME280;69047;53.358;-1.486;2023-08-21T12:30:19;101074.50;;;22.69;52.22
54562;BME280;69047;53.358;-1.486;2023-08-21T12:32:44;101076.06;;;22.61;51.32
54562;BME280;69047;53.358;-1.486;2023-08-21T12:35:09;101072.34;;;22.57;51.70
54562;BME280;69047;53.358;-1.486;2023-08-21T12:37:37;101062.69;;;22.38;52.59
54562;BME280;69047;53.358;-1.486;2023-08-21T12:40:03;101076.03;;;22.44;52.34
54562;BME280;69047;53.358;-1.486;2023-08-21T12:42:28;101057.31;;;22.33;52.31
54562;BME280;69047;53.358;-1.486;2023-08-21T12:44:54;101053.47;;;22.42;53.11
54562;BME280;69047;53.358;-1.486;2023-08-21T12:47:19;101052.84;;;22.54;53.27